Millers River @ Winchendon, Ma

Millers River at Winchendon
 Total Drainage Area: 82 sq. miles 
 Drainage Area Controlled by Corps Dams: ?? sq. miles (??%) 
 Warning Flow/Stage: ?? cfs / ?? feet 
 Flood Flow/Stage: ?? cfs / ?? feet 
Date Time
(Eastern)
Stage
(ft)
Flow
(cfs)
CSM
May-28 12:00 pm 4.29 67 .8
May-28 11:00 am 4.29 67 .8
May-28 10:00 am 4.30 69 .8
May-28 09:00 am 4.31 70 .9
May-28 08:00 am 4.30 69 .8
May-28 07:00 am 4.27 64 .8
May-28 06:00 am 4.26 63 .8
May-28 05:00 am 4.23 59 .7
May-28 04:00 am 4.21 56 .7
May-28 03:00 am 4.19 54 .7
May-28 02:00 am 4.17 51 .6
May-28 01:00 am 4.21 56 .7
May-28 12:00 am 4.25 62 .8
May-27 11:00 pm 4.23 59 .7
May-27 10:00 pm 4.23 59 .7
May-27 09:00 pm 4.23 59 .7
May-27 08:00 pm 4.23 59 .7
May-27 07:00 pm 4.23 59 .7
May-27 06:00 pm 4.23 59 .7
May-27 05:00 pm 4.23 59 .7
May-27 04:00 pm 4.23 59 .7
May-27 03:00 pm 4.23 59 .7
May-27 02:00 pm 4.24 60 .7
May-27 01:00 pm 4.24 60 .7
May-27 12:00 pm 4.24 60 .7
Report Generated May 28, 2022 04:41 pm